createdAt,value
2023-05-16T00:02:49.090Z,14.44
2023-05-16T00:06:37.007Z,14.25
2023-05-16T00:10:40.467Z,14.10
2023-05-16T00:14:28.549Z,13.98
2023-05-16T00:18:28.124Z,14.00
2023-05-16T00:22:18.266Z,14.11
2023-05-16T00:25:50.198Z,13.95
2023-05-16T00:29:37.648Z,13.82
2023-05-16T00:37:48.166Z,13.73
2023-05-16T00:53:43.050Z,13.54
2023-05-16T01:06:17.026Z,13.33
2023-05-16T01:10:45.743Z,13.13
2023-05-16T01:15:36.616Z,13.00
2023-05-16T01:19:18.445Z,12.96
2023-05-16T01:23:21.107Z,12.96
2023-05-16T01:27:27.682Z,12.83
2023-05-16T01:31:13.359Z,12.72
2023-05-16T01:35:20.814Z,12.73
2023-05-16T01:38:42.579Z,12.79
2023-05-16T01:42:39.524Z,12.78
2023-05-16T01:46:30.116Z,12.79
2023-05-16T01:49:53.470Z,12.84
2023-05-16T01:53:45.300Z,12.83
2023-05-16T01:57:51.496Z,12.88
2023-05-16T02:01:38.647Z,13.00
2023-05-16T02:05:39.159Z,12.92
2023-05-16T02:10:08.859Z,13.00
2023-05-16T02:14:12.447Z,12.84
2023-05-16T02:17:48.906Z,12.80
2023-05-16T02:21:29.623Z,12.79
2023-05-16T02:24:54.372Z,12.72
2023-05-16T02:28:20.229Z,12.63
2023-05-16T02:31:40.839Z,12.61
2023-05-16T02:35:52.777Z,12.62
2023-05-16T02:39:42.028Z,12.61
2023-05-16T02:43:05.734Z,12.71
2023-05-16T02:46:45.840Z,12.65
2023-05-16T02:50:33.265Z,12.45
2023-05-16T02:54:22.956Z,12.61
2023-05-16T02:58:10.819Z,12.72
2023-05-16T03:01:54.411Z,12.75
2023-05-16T03:06:10.975Z,12.86
2023-05-16T03:10:16.712Z,12.80
2023-05-16T03:14:21.409Z,12.71
2023-05-16T03:18:07.503Z,12.85
2023-05-16T03:22:06.389Z,12.87
2023-05-16T03:26:14.336Z,12.88
2023-05-16T03:30:22.937Z,12.88
2023-05-16T03:33:53.384Z,12.91
2023-05-16T03:38:13.495Z,13.08
2023-05-16T03:42:01.054Z,13.02
2023-05-16T03:45:48.675Z,12.90
2023-05-16T03:49:17.496Z,13.05
2023-05-16T03:53:07.779Z,13.16
2023-05-16T03:57:21.068Z,13.27
2023-05-16T04:01:05.569Z,13.35
2023-05-16T04:05:14.844Z,13.52
2023-05-16T04:08:46.462Z,13.46
2023-05-16T04:12:50.505Z,13.58
2023-05-16T04:20:56.834Z,13.97
2023-05-16T04:24:44.855Z,14.05
2023-05-16T04:28:15.848Z,14.28
2023-05-16T04:32:41.724Z,14.56
2023-05-16T04:36:31.908Z,14.60
2023-05-16T04:40:18.687Z,14.56
2023-05-16T04:44:28.502Z,14.80
2023-05-16T04:48:55.934Z,14.81
2023-05-16T04:53:24.076Z,14.59
2023-05-16T05:01:55.564Z,15.02
2023-05-16T05:05:43.808Z,15.18
2023-05-16T05:09:31.557Z,15.78
2023-05-16T05:13:17.830Z,15.99
2023-05-16T05:17:01.334Z,16.13
2023-05-16T05:20:49.603Z,16.21
2023-05-16T05:24:37.133Z,16.17
2023-05-16T05:28:24.645Z,16.26
2023-05-16T05:36:19.290Z,16.78
2023-05-16T05:40:15.773Z,16.75
2023-05-16T05:44:23.845Z,16.86
2023-05-16T05:48:20.061Z,16.58
2023-05-16T05:52:48.514Z,16.23
2023-05-16T05:57:00.743Z,16.13
2023-05-16T06:01:28.858Z,15.98
2023-05-16T06:05:32.828Z,16.01
2023-05-16T06:09:43.197Z,16.12
2023-05-16T06:14:11.035Z,16.59
2023-05-16T06:18:39.943Z,16.53
2023-05-16T06:22:48.016Z,16.69
2023-05-16T06:26:52.112Z,16.77
2023-05-16T06:31:20.054Z,16.83
2023-05-16T06:35:35.410Z,16.73
2023-05-16T06:39:59.997Z,16.92
2023-05-16T06:44:27.628Z,16.93
2023-05-16T06:48:35.575Z,17.48
2023-05-16T06:52:41.266Z,17.54
2023-05-16T06:56:33.198Z,17.66
2023-05-16T07:00:37.458Z,18.06
2023-05-16T07:04:28.137Z,17.82
2023-05-16T07:08:36.115Z,17.86
2023-05-16T07:12:44.327Z,18.08
2023-05-16T07:16:52.249Z,18.99
2023-05-16T07:21:00.629Z,19.84
2023-05-16T07:24:50.905Z,20.24
2023-05-16T07:28:57.009Z,21.62
2023-05-16T07:32:46.120Z,21.33
2023-05-16T07:36:54.219Z,20.89
2023-05-16T07:40:44.387Z,20.90
2023-05-16T07:44:40.937Z,21.02
2023-05-16T07:49:08.500Z,20.55
2023-05-16T07:52:57.380Z,20.51
2023-05-16T07:57:08.967Z,20.79
2023-05-16T08:00:57.468Z,20.76
2023-05-16T08:04:46.742Z,21.23
2023-05-16T08:08:53.975Z,21.23
2023-05-16T08:12:43.687Z,21.37
2023-05-16T08:16:35.363Z,21.42
2023-05-16T08:21:01.227Z,21.58
2023-05-16T08:25:10.415Z,22.12
2023-05-16T08:29:18.896Z,21.99
2023-05-16T08:33:11.343Z,22.43
2023-05-16T08:37:44.554Z,21.83
2023-05-16T08:41:57.229Z,22.14
2023-05-16T08:46:09.959Z,22.20
2023-05-16T08:49:59.969Z,22.24
2023-05-16T08:54:36.297Z,22.50
2023-05-16T08:58:34.908Z,22.24
2023-05-16T09:02:54.233Z,22.63
2023-05-16T09:06:50.058Z,23.56
2023-05-16T09:10:58.565Z,23.04
2023-05-16T09:14:48.284Z,23.68
2023-05-16T09:18:54.376Z,23.35
2023-05-16T09:23:13.339Z,23.42
2023-05-16T09:27:25.069Z,23.00
2023-05-16T09:31:34.639Z,23.22
2023-05-16T09:35:45.546Z,23.78
2023-05-16T09:39:55.807Z,24.33
2023-05-16T09:44:23.827Z,23.97
2023-05-16T09:48:13.861Z,25.39
2023-05-16T09:52:06.800Z,25.40
2023-05-16T09:56:16.610Z,25.88
2023-05-16T10:00:25.724Z,25.21
2023-05-16T10:04:41.427Z,24.74
2023-05-16T10:09:04.696Z,24.16
2023-05-16T10:13:14.877Z,23.87
2023-05-16T10:17:22.922Z,23.77
2023-05-16T10:21:31.257Z,22.96
2023-05-16T10:26:14.050Z,22.64
2023-05-16T10:30:03.754Z,24.08
2023-05-16T10:33:52.450Z,24.62
2023-05-16T10:37:40.208Z,23.86
2023-05-16T10:41:36.995Z,23.35
2023-05-16T10:46:19.579Z,23.45
2023-05-16T10:50:20.468Z,22.23
2023-05-16T10:54:19.407Z,21.84
2023-05-16T10:58:31.247Z,21.56
2023-05-16T11:02:43.152Z,21.99
2023-05-16T11:06:54.175Z,22.24
2023-05-16T11:11:04.295Z,22.44
2023-05-16T11:15:32.721Z,22.36
2023-05-16T11:20:12.903Z,22.81
2023-05-16T11:24:39.718Z,23.81
2023-05-16T11:29:07.962Z,23.44
2023-05-16T11:33:36.956Z,23.92
2023-05-16T11:37:45.684Z,23.07
2023-05-16T11:42:14.575Z,22.68
2023-05-16T11:46:57.896Z,22.55
2023-05-16T11:51:25.557Z,21.93
2023-05-16T11:55:55.739Z,22.00
2023-05-16T12:00:05.172Z,22.74
2023-05-16T12:04:36.248Z,23.44
2023-05-16T12:08:30.177Z,22.57
2023-05-16T12:12:19.050Z,23.12
2023-05-16T12:16:27.920Z,22.73
2023-05-16T12:20:18.376Z,21.73
2023-05-16T12:28:41.565Z,21.26
2023-05-16T12:32:32.968Z,21.45
2023-05-16T12:36:21.230Z,21.14
2023-05-16T12:40:29.833Z,21.87
2023-05-16T12:45:06.550Z,21.86
2023-05-16T12:49:15.521Z,21.73
2023-05-16T12:53:03.659Z,21.68
2023-05-16T12:57:20.535Z,21.56
2023-05-16T13:01:16.879Z,21.09
2023-05-16T13:05:25.349Z,20.75
2023-05-16T13:09:34.962Z,20.85
2023-05-16T13:13:42.729Z,21.21
2023-05-16T13:17:50.664Z,20.58
2023-05-16T13:22:12.042Z,20.70
2023-05-16T13:26:01.902Z,20.78
2023-05-16T13:30:10.172Z,20.86
2023-05-16T13:34:06.372Z,20.73
2023-05-16T13:38:14.483Z,21.12
2023-05-16T13:42:03.110Z,20.82
2023-05-16T13:45:52.479Z,20.91
2023-05-16T13:49:45.369Z,20.44
2023-05-16T13:54:15.723Z,20.17
2023-05-16T13:58:23.649Z,20.19
2023-05-16T14:02:13.401Z,19.87
2023-05-16T14:06:01.874Z,19.81
2023-05-16T14:10:09.847Z,20.15
2023-05-16T14:14:06.442Z,20.19
2023-05-16T14:18:15.513Z,20.07
2023-05-16T14:22:12.495Z,20.04
2023-05-16T14:26:28.301Z,19.84
2023-05-16T14:30:15.669Z,19.75
2023-05-16T14:34:05.681Z,19.94
2023-05-16T14:38:02.523Z,19.51
2023-05-16T14:41:54.011Z,19.58
2023-05-16T14:46:02.023Z,19.47
2023-05-16T14:49:58.626Z,18.50
2023-05-16T14:53:49.768Z,18.65
2023-05-16T14:57:59.982Z,18.60
2023-05-16T15:01:57.158Z,18.59
2023-05-16T15:05:46.639Z,18.76
2023-05-16T15:10:03.365Z,18.28
2023-05-16T15:13:55.279Z,18.19
2023-05-16T15:18:02.404Z,18.06
2023-05-16T15:21:50.312Z,18.18
2023-05-16T15:25:59.938Z,18.27
2023-05-16T15:30:08.100Z,18.41
2023-05-16T15:34:00.221Z,18.28
2023-05-16T15:37:49.257Z,17.95
2023-05-16T15:42:10.263Z,17.84
2023-05-16T15:46:07.289Z,17.68
2023-05-16T15:49:56.149Z,17.84
2023-05-16T15:54:19.313Z,18.03
2023-05-16T15:58:27.420Z,17.99
2023-05-16T16:02:17.202Z,17.66
2023-05-16T16:06:26.777Z,17.30
2023-05-16T16:10:35.170Z,17.19
2023-05-16T16:14:30.396Z,17.30
2023-05-16T16:18:18.040Z,16.91
2023-05-16T16:22:07.190Z,16.83
2023-05-16T16:26:15.681Z,16.78
2023-05-16T16:30:02.862Z,17.03
2023-05-16T16:33:50.877Z,16.93
2023-05-16T16:38:07.179Z,16.84
2023-05-16T16:42:11.755Z,16.72
2023-05-16T16:46:00.222Z,16.58
2023-05-16T16:50:29.222Z,16.65
2023-05-16T16:54:37.259Z,16.58
2023-05-16T16:58:58.009Z,16.35
2023-05-16T17:03:06.888Z,16.24
2023-05-16T17:07:12.860Z,15.99
2023-05-16T17:11:07.192Z,15.84
2023-05-16T17:15:11.947Z,15.82
2023-05-16T17:19:01.195Z,16.07
2023-05-16T17:22:55.198Z,15.64
2023-05-16T17:26:43.717Z,15.74
2023-05-16T17:30:32.420Z,15.63
2023-05-16T17:34:17.733Z,15.55
2023-05-16T17:38:09.872Z,15.51
2023-05-16T17:42:19.424Z,15.62
2023-05-16T17:46:29.854Z,15.41
2023-05-16T17:50:19.159Z,15.47
2023-05-16T17:54:11.422Z,15.55
2023-05-16T17:58:01.717Z,15.34
2023-05-16T18:01:49.896Z,15.19
2023-05-16T18:06:01.835Z,15.12
2023-05-16T18:09:51.837Z,15.05
2023-05-16T18:13:41.134Z,14.93
2023-05-16T18:17:49.073Z,15.06
2023-05-16T18:22:15.070Z,15.15
2023-05-16T18:26:05.866Z,15.23
2023-05-16T18:29:55.020Z,15.28
2023-05-16T18:33:44.153Z,15.36
2023-05-16T18:37:33.028Z,15.26
2023-05-16T18:41:20.758Z,15.37
2023-05-16T18:45:11.246Z,15.40
2023-05-16T18:49:02.610Z,15.32
2023-05-16T18:53:12.038Z,15.08
2023-05-16T18:57:22.230Z,15.23
2023-05-16T19:01:10.060Z,15.30
2023-05-16T19:05:00.524Z,15.23
2023-05-16T19:08:50.057Z,15.13
2023-05-16T19:12:39.263Z,15.30
2023-05-16T19:16:30.342Z,15.18
2023-05-16T19:20:24.291Z,15.03
2023-05-16T19:23:53.781Z,15.18
2023-05-16T19:27:42.727Z,15.21
2023-05-16T19:31:31.060Z,15.27
2023-05-16T19:35:20.219Z,15.23
2023-05-16T19:39:16.774Z,15.17
2023-05-16T19:43:05.958Z,15.07
2023-05-16T19:47:19.708Z,14.87
2023-05-16T19:51:08.538Z,14.88
2023-05-16T19:55:05.085Z,14.92
2023-05-16T19:58:54.432Z,14.87
2023-05-16T20:02:44.764Z,14.80
2023-05-16T20:06:33.900Z,14.89
2023-05-16T20:10:22.301Z,14.90
2023-05-16T20:14:30.502Z,14.92
2023-05-16T20:18:35.225Z,14.93
2023-05-16T20:22:40.914Z,15.03
2023-05-16T20:26:30.096Z,15.12
2023-05-16T20:30:18.694Z,15.14
2023-05-16T20:34:30.257Z,15.11
2023-05-16T20:38:38.579Z,15.05
2023-05-16T20:42:31.713Z,14.99
2023-05-16T20:46:39.643Z,15.07
2023-05-16T20:50:44.876Z,15.14
2023-05-16T20:54:56.361Z,15.19
2023-05-16T20:58:51.730Z,15.34
2023-05-16T21:02:44.788Z,15.36
2023-05-16T21:06:33.326Z,15.27
2023-05-16T21:10:22.518Z,15.26
2023-05-16T21:14:30.697Z,15.23
2023-05-16T21:18:42.368Z,15.11
2023-05-16T21:22:32.426Z,15.05
2023-05-16T21:26:20.326Z,15.01
2023-05-16T21:30:08.926Z,15.06
2023-05-16T21:34:17.476Z,15.00
2023-05-16T21:38:13.440Z,15.08
2023-05-16T21:42:02.541Z,15.15
2023-05-16T21:45:55.599Z,15.21
2023-05-16T21:49:43.592Z,15.24
2023-05-16T21:53:39.281Z,15.26
2023-05-16T21:57:27.952Z,15.21
2023-05-16T22:01:36.538Z,15.05
2023-05-16T22:05:45.512Z,14.95
2023-05-16T22:09:53.379Z,14.79
2023-05-16T22:13:42.709Z,14.70
2023-05-16T22:17:31.364Z,14.73
2023-05-16T22:21:21.517Z,14.78
2023-05-16T22:25:29.404Z,14.73
2023-05-16T22:29:40.417Z,14.83
2023-05-16T22:33:29.111Z,14.77
2023-05-16T22:37:37.476Z,14.73
2023-05-16T22:41:35.892Z,14.73
2023-05-16T22:45:24.001Z,14.64
2023-05-16T22:49:14.533Z,14.69
2023-05-16T22:53:04.366Z,14.64
2023-05-16T22:56:53.687Z,14.63
2023-05-16T23:01:02.400Z,14.65
2023-05-16T23:04:54.397Z,14.70
2023-05-16T23:08:44.681Z,14.73
2023-05-16T23:12:34.538Z,14.70
2023-05-16T23:16:43.942Z,14.73
2023-05-16T23:20:52.495Z,14.65
2023-05-16T23:24:44.375Z,14.49
2023-05-16T23:28:32.889Z,14.44
2023-05-16T23:32:22.358Z,14.46
2023-05-16T23:36:11.092Z,14.25
2023-05-16T23:39:59.483Z,14.29
2023-05-16T23:43:50.142Z,14.26
2023-05-16T23:47:39.581Z,14.30
2023-05-16T23:51:45.307Z,14.27
2023-05-16T23:55:42.790Z,14.12
2023-05-16T23:59:32.272Z,14.10
